Time;durP1;ratioP1;P1;durP2;ratioP2;P2;SDS_P1;SDS_P2;PMS_P1;PMS_P2;Temp;Humidity;BMP_temperature;BMP_pressure;BME280_temperature;BME280_humidity;BME280_pressure;Samples;Min_cycle;Max_cycle;Signal;HPM_P1;HPM_P2
2022/02/11 00:02:20;;;;;;;23.25;17.80;;;;;;;;;;4828046;29;88287;-76
2022/02/11 00:05:34;;;;;;;27.60;18.27;;;;;;;;;;4845595;29;91974;-76
2022/02/11 00:07:58;;;;;;;24.55;17.23;;;;;;;;;;4830622;29;86891;-78
2022/02/11 00:10:26;;;;;;;30.58;17.20;;;;;;;;;;4815320;29;86216;-76
2022/02/11 00:12:54;;;;;;;28.08;19.20;;;;;;;;;;4830250;29;89628;-75
2022/02/11 00:17:58;;;;;;;26.83;18.63;;;;;;;;;;4814745;29;87987;-75
2022/02/11 00:20:25;;;;;;;29.65;19.02;;;;;;;;;;4814222;29;86920;-75
2022/02/11 00:22:52;;;;;;;31.90;20.10;;;;;;;;;;4830589;29;89351;-75
2022/02/11 00:25:20;;;;;;;23.42;18.35;;;;;;;;;;4814040;29;87910;-75
2022/02/11 00:33:15;;;;;;;18.00;14.23;;;;;;;;;;4813895;29;89245;-76
2022/02/11 00:35:51;;;;;;;26.80;16.25;;;;;;;;;;4817976;29;86565;-76
2022/02/11 00:38:25;;;;;;;25.38;17.15;;;;;;;;;;4829003;29;86965;-76
2022/02/11 00:46:27;;;;;;;18.77;14.63;;;;;;;;;;4828564;29;90808;-76
2022/02/11 01:02:58;;;;;;;21.52;16.88;;;;;;;;;;4817145;29;86728;-76
2022/02/11 01:05:25;;;;;;;20.23;16.10;;;;;;;;;;4813931;29;89205;-75
2022/02/11 01:07:53;;;;;;;18.77;15.77;;;;;;;;;;4829868;29;89653;-75
2022/02/11 01:10:20;;;;;;;20.10;17.13;;;;;;;;;;4827849;29;88081;-74
2022/02/11 01:12:47;;;;;;;23.55;16.45;;;;;;;;;;4829050;29;87083;-74
2022/02/11 01:15:15;;;;;;;21.73;15.73;;;;;;;;;;4827513;29;89388;-74
2022/02/11 01:17:55;;;;;;;18.38;15.55;;;;;;;;;;4830013;29;89299;-76
2022/02/11 01:23:26;;;;;;;21.65;13.38;;;;;;;;;;4844936;29;86951;-76
2022/02/11 01:31:17;;;;;;;19.02;15.75;;;;;;;;;;4821278;29;86983;-77
2022/02/11 01:57:24;;;;;;;22.73;13.77;;;;;;;;;;4827826;29;89566;-77
2022/02/11 02:06:10;;;;;;;18.50;13.43;;;;;;;;;;4828286;29;87223;-78
2022/02/11 02:37:22;;;;;;;25.02;13.68;;;;;;;;;;4828021;29;87116;-76
2022/02/11 03:00:00;;;;;;;23.35;13.15;;;;;;;;;;4826620;29;87372;-76
2022/02/11 03:35:56;;;;;;;12.77;10.48;;;;;;;;;;4801296;29;90352;-74
2022/02/11 05:00:00;;;;;;;21.65;11.73;;;;;;;;;;4804826;29;92416;-77
2022/02/11 05:02:30;;;;;;;18.67;11.48;;;;;;;;;;4823262;29;93489;-78
2022/02/11 05:05:04;;;;;;;15.93;10.45;;;;;;;;;;4826658;29;93852;-78
2022/02/11 05:07:32;;;;;;;20.20;12.18;;;;;;;;;;4822919;29;92051;-78
2022/02/11 05:10:01;;;;;;;18.08;10.65;;;;;;;;;;4835304;29;91979;-79
2022/02/11 05:12:28;;;;;;;17.58;10.98;;;;;;;;;;4810216;29;95662;-79
2022/02/11 05:14:54;;;;;;;18.33;10.15;;;;;;;;;;4821753;29;94825;-77
2022/02/11 05:17:21;;;;;;;16.50;9.65;;;;;;;;;;4807496;29;92010;-76
2022/02/11 05:19:48;;;;;;;10.10;8.23;;;;;;;;;;4826844;29;92834;-77
2022/02/11 05:22:15;;;;;;;13.65;7.65;;;;;;;;;;4822351;29;96080;-77
2022/02/11 05:24:42;;;;;;;10.73;7.68;;;;;;;;;;4825574;29;94596;-77
2022/02/11 05:27:09;;;;;;;9.15;6.75;;;;;;;;;;4821946;29;91996;-78
2022/02/11 05:29:36;;;;;;;10.07;6.03;;;;;;;;;;4825154;29;91363;-78
2022/02/11 05:32:03;;;;;;;11.75;6.32;;;;;;;;;;4815949;29;95711;-80
2022/02/11 05:34:30;;;;;;;8.38;6.00;;;;;;;;;;4809900;29;94571;-76
2022/02/11 05:36:57;;;;;;;15.15;7.55;;;;;;;;;;4832692;29;92987;-78
2022/02/11 05:39:25;;;;;;;8.82;6.43;;;;;;;;;;4836476;29;92635;-78
2022/02/11 05:41:52;;;;;;;10.23;6.32;;;;;;;;;;4811004;29;94684;-79
2022/02/11 05:44:19;;;;;;;10.90;5.88;;;;;;;;;;4808920;29;92438;-79
2022/02/11 05:46:47;;;;;;;9.93;6.55;;;;;;;;;;4822733;29;91930;-79
2022/02/11 05:49:13;;;;;;;14.52;7.07;;;;;;;;;;4823274;29;91931;-77
2022/02/11 05:51:40;;;;;;;10.35;6.72;;;;;;;;;;4837293;29;94407;-77
2022/02/11 05:54:07;;;;;;;9.18;6.68;;;;;;;;;;4820323;29;95578;-78
2022/02/11 05:56:34;;;;;;;12.60;7.75;;;;;;;;;;4836766;29;92110;-77
2022/02/11 05:59:02;;;;;;;14.68;8.00;;;;;;;;;;4826387;29;92737;-86
2022/02/11 06:01:30;;;;;;;11.55;8.80;;;;;;;;;;4825868;29;95667;-81
2022/02/11 06:03:57;;;;;;;9.95;7.60;;;;;;;;;;4812961;29;94441;-86
2022/02/11 06:06:24;;;;;;;8.60;7.20;;;;;;;;;;4831021;29;91907;-85
2022/02/11 06:08:51;;;;;;;9.90;6.85;;;;;;;;;;4830351;29;92127;-82
2022/02/11 06:11:19;;;;;;;13.80;7.65;;;;;;;;;;4826957;29;94705;-83
2022/02/11 06:13:47;;;;;;;9.30;7.85;;;;;;;;;;4819577;29;93459;-86
2022/02/11 06:16:14;;;;;;;12.13;7.60;;;;;;;;;;4821453;29;92994;-82
2022/02/11 06:18:40;;;;;;;17.55;8.80;;;;;;;;;;4828191;29;91272;-82
2022/02/11 06:21:07;;;;;;;10.90;8.45;;;;;;;;;;4841550;29;94746;-81
2022/02/11 06:23:35;;;;;;;12.43;9.23;;;;;;;;;;4827309;29;94713;-82
2022/02/11 06:26:02;;;;;;;15.50;9.50;;;;;;;;;;4825702;29;92908;-82
2022/02/11 06:28:29;;;;;;;11.30;9.23;;;;;;;;;;4825657;29;92046;-80
2022/02/11 06:30:56;;;;;;;11.15;8.80;;;;;;;;;;4825689;29;95541;-80
2022/02/11 06:33:23;;;;;;;16.80;9.35;;;;;;;;;;4827116;29;94568;-80
2022/02/11 06:35:50;;;;;;;16.23;10.63;;;;;;;;;;4811605;29;92043;-81
2022/02/11 06:38:17;;;;;;;16.73;9.13;;;;;;;;;;4809953;29;92132;-80
2022/02/11 06:40:46;;;;;;;12.40;9.57;;;;;;;;;;4826825;29;94455;-75
2022/02/11 06:43:14;;;;;;;12.98;10.68;;;;;;;;;;4812909;29;92056;-76
2022/02/11 06:45:41;;;;;;;15.32;10.05;;;;;;;;;;4803981;29;92013;-77
2022/02/11 06:48:08;;;;;;;25.20;10.20;;;;;;;;;;4794368;29;91964;-76
2022/02/11 06:50:35;;;;;;;12.98;9.60;;;;;;;;;;4809000;29;95424;-78
2022/02/11 06:53:02;;;;;;;15.00;11.70;;;;;;;;;;4809786;29;96221;-77
2022/02/11 06:55:29;;;;;;;17.23;10.45;;;;;;;;;;4838052;29;92778;-78
2022/02/11 06:57:56;;;;;;;21.33;12.73;;;;;;;;;;4818926;29;92858;-77
2022/02/11 07:00:23;;;;;;;18.25;10.98;;;;;;;;;;4816689;29;94743;-77
2022/02/11 07:02:50;;;;;;;16.63;10.10;;;;;;;;;;4821666;29;96257;-77
2022/02/11 07:05:19;;;;;;;19.92;9.60;;;;;;;;;;4835324;29;92109;-77
2022/02/11 07:07:47;;;;;;;18.13;8.45;;;;;;;;;;4824599;29;91386;-76
2022/02/11 07:10:14;;;;;;;13.32;8.70;;;;;;;;;;4818037;29;93965;-77
2022/02/11 07:12:42;;;;;;;16.13;9.63;;;;;;;;;;4840418;29;93694;-76
2022/02/11 07:15:09;;;;;;;11.63;7.90;;;;;;;;;;4820027;29;92871;-77
2022/02/11 07:17:37;;;;;;;19.38;8.27;;;;;;;;;;4837699;29;92199;-77
2022/02/11 07:20:08;;;;;;;11.90;8.02;;;;;;;;;;4838666;29;94067;-77
2022/02/11 07:22:35;;;;;;;19.38;9.10;;;;;;;;;;4828749;29;93012;-77
2022/02/11 07:25:04;;;;;;;21.58;8.65;;;;;;;;;;4828246;29;91926;-77
2022/02/11 07:27:31;;;;;;;16.27;7.85;;;;;;;;;;4829143;29;92066;-78
2022/02/11 07:30:20;;;;;;;14.30;8.23;;;;;;;;;;4831265;29;94477;-77
2022/02/11 07:32:51;;;;;;;13.07;8.25;;;;;;;;;;4829770;29;93996;-78
2022/02/11 07:35:20;;;;;;;21.38;9.45;;;;;;;;;;4837531;29;92045;-78
2022/02/11 07:37:47;;;;;;;15.98;9.02;;;;;;;;;;4820481;29;92743;-81
2022/02/11 07:40:14;;;;;;;21.67;9.43;;;;;;;;;;4828400;29;96118;-80
2022/02/11 07:42:42;;;;;;;17.20;9.55;;;;;;;;;;4830828;29;94919;-81
2022/02/11 07:45:10;;;;;;;21.40;9.02;;;;;;;;;;4843258;29;91843;-81
2022/02/11 07:47:37;;;;;;;17.13;8.45;;;;;;;;;;4821193;29;91969;-78
2022/02/11 07:50:06;;;;;;;20.00;9.65;;;;;;;;;;4831494;29;94819;-82
2022/02/11 07:52:34;;;;;;;17.52;9.15;;;;;;;;;;4836072;29;94362;-83
2022/02/11 07:55:01;;;;;;;16.48;9.20;;;;;;;;;;4825354;29;92552;-83
2022/02/11 07:57:29;;;;;;;10.98;7.45;;;;;;;;;;4826266;29;91703;-84
2022/02/11 07:59:56;;;;;;;13.60;8.68;;;;;;;;;;4825617;29;95675;-84
2022/02/11 08:02:23;;;;;;;16.20;8.38;;;;;;;;;;4823778;29;94080;-80
2022/02/11 08:04:50;;;;;;;22.98;9.20;;;;;;;;;;4839770;29;93531;-77
2022/02/11 08:07:17;;;;;;;15.00;9.15;;;;;;;;;;4823185;29;92108;-78
2022/02/11 08:09:44;;;;;;;11.90;8.30;;;;;;;;;;4828754;29;94079;-81
2022/02/11 08:12:12;;;;;;;20.45;8.68;;;;;;;;;;4820899;29;93580;-78
2022/02/11 08:14:39;;;;;;;23.15;8.52;;;;;;;;;;4810887;29;92059;-74
2022/02/11 08:17:06;;;;;;;11.50;7.40;;;;;;;;;;4820600;29;92081;-76
2022/02/11 08:19:33;;;;;;;12.27;8.10;;;;;;;;;;4825530;29;94587;-79
2022/02/11 08:22:00;;;;;;;18.92;8.95;;;;;;;;;;4841332;29;94450;-81
2022/02/11 08:24:27;;;;;;;19.05;8.48;;;;;;;;;;4812337;29;92294;-78
2022/02/11 08:26:54;;;;;;;10.80;8.15;;;;;;;;;;4817784;29;92087;-76
2022/02/11 08:29:25;;;;;;;19.20;9.55;;;;;;;;;;4818501;29;95356;-76
2022/02/11 08:31:55;;;;;;;15.55;10.13;;;;;;;;;;4822569;29;95954;-76
2022/02/11 08:34:24;;;;;;;16.63;9.40;;;;;;;;;;4825845;29;92023;-75
2022/02/11 08:36:51;;;;;;;13.55;8.15;;;;;;;;;;4826500;29;92075;-76
2022/02/11 08:39:18;;;;;;;15.60;8.73;;;;;;;;;;4827776;29;94043;-76
2022/02/11 08:41:45;;;;;;;25.55;9.75;;;;;;;;;;4819253;29;93110;-76
2022/02/11 08:44:18;;;;;;;19.35;7.78;;;;;;;;;;4838574;29;92279;-76
2022/02/11 08:46:45;;;;;;;25.67;8.95;;;;;;;;;;4825788;29;91696;-75
2022/02/11 08:49:13;;;;;;;29.77;10.40;;;;;;;;;;4840523;29;94320;-74
2022/02/11 08:51:40;;;;;;;28.33;9.32;;;;;;;;;;4822569;29;92930;-76
2022/02/11 08:54:07;;;;;;;28.30;11.38;;;;;;;;;;4822187;29;93284;-76
2022/02/11 08:56:38;;;;;;;23.65;11.57;;;;;;;;;;4824304;29;92064;-75
2022/02/11 08:59:08;;;;;;;26.17;8.93;;;;;;;;;;4825150;29;92755;-78
2022/02/11 09:01:36;;;;;;;23.08;8.80;;;;;;;;;;4824733;29;94053;-73
2022/02/11 09:04:03;;;;;;;40.00;10.32;;;;;;;;;;4827758;29;92890;-76
2022/02/11 09:06:30;;;;;;;34.00;14.40;;;;;;;;;;4825468;29;92277;-74
2022/02/11 09:08:57;;;;;;;27.88;8.55;;;;;;;;;;4831501;29;93810;-74
2022/02/11 09:11:24;;;;;;;12.63;6.70;;;;;;;;;;4825962;29;93624;-74
2022/02/11 09:13:51;;;;;;;14.02;6.18;;;;;;;;;;4824757;29;92267;-74
2022/02/11 09:16:18;;;;;;;19.80;9.68;;;;;;;;;;4816910;29;93113;-74
2022/02/11 09:18:45;;;;;;;14.68;6.93;;;;;;;;;;4822607;29;95929;-75
2022/02/11 09:21:13;;;;;;;50.28;7.68;;;;;;;;;;4823341;29;94812;-76
2022/02/11 09:23:40;;;;;;;15.52;6.55;;;;;;;;;;4817073;29;92071;-75
2022/02/11 09:26:07;;;;;;;21.05;7.55;;;;;;;;;;4823281;29;92454;-74
2022/02/11 09:28:35;;;;;;;14.35;6.47;;;;;;;;;;4809013;29;94543;-74
2022/02/11 09:31:04;;;;;;;11.45;5.88;;;;;;;;;;4818465;29;94740;-75
2022/02/11 09:33:31;;;;;;;7.68;5.05;;;;;;;;;;4827103;29;91999;-79
2022/02/11 09:35:58;;;;;;;19.55;5.45;;;;;;;;;;4841087;29;91282;-81
2022/02/11 09:38:25;;;;;;;11.27;5.60;;;;;;;;;;4840881;29;94421;-77
2022/02/11 09:40:53;;;;;;;13.45;4.65;;;;;;;;;;4839572;29;94278;-78
2022/02/11 09:43:22;;;;;;;8.40;4.88;;;;;;;;;;4825597;29;93405;-78
2022/02/11 09:45:50;;;;;;;12.15;6.25;;;;;;;;;;4825602;29;92037;-76
2022/02/11 09:48:16;;;;;;;12.82;5.75;;;;;;;;;;4824545;29;94425;-77
2022/02/11 09:50:42;;;;;;;12.27;6.03;;;;;;;;;;4841117;29;94893;-77
2022/02/11 09:53:15;;;;;;;11.48;5.10;;;;;;;;;;4825741;29;91925;-75
2022/02/11 09:55:43;;;;;;;9.10;5.43;;;;;;;;;;4826806;29;94006;-76
2022/02/11 09:58:15;;;;;;;21.90;5.43;;;;;;;;;;4824907;29;94446;-76
2022/02/11 10:00:48;;;;;;;10.77;5.47;;;;;;;;;;4825051;29;94166;-76
2022/02/11 10:03:15;;;;;;;10.35;5.20;;;;;;;;;;4825347;29;92015;-78
2022/02/11 10:06:06;;;;;;;10.63;6.28;;;;;;;;;;4825689;29;92056;-75
2022/02/11 10:08:36;;;;;;;14.32;4.85;;;;;;;;;;4823635;29;95071;-75
2022/02/11 10:11:05;;;;;;;11.23;5.75;;;;;;;;;;4825177;29;95267;-75
2022/02/11 10:13:41;;;;;;;8.63;5.05;;;;;;;;;;4840127;29;92041;-75
2022/02/11 10:16:12;;;;;;;9.93;6.05;;;;;;;;;;4825079;29;91964;-75
2022/02/11 10:18:46;;;;;;;12.93;5.32;;;;;;;;;;4823799;29;94950;-76
2022/02/11 10:21:23;;;;;;;9.57;4.63;;;;;;;;;;4856885;29;92742;-76
2022/02/11 10:23:56;;;;;;;7.38;4.75;;;;;;;;;;4855020;29;92106;-76
2022/02/11 10:26:24;;;;;;;11.93;5.45;;;;;;;;;;4823258;29;91370;-76
2022/02/11 10:28:53;;;;;;;10.20;5.38;;;;;;;;;;4835783;29;94035;-76
2022/02/11 10:31:20;;;;;;;9.77;4.63;;;;;;;;;;4819393;29;92743;-77
2022/02/11 10:33:52;;;;;;;9.10;5.38;;;;;;;;;;4826227;29;92965;-76
2022/02/11 10:36:22;;;;;;;8.85;5.75;;;;;;;;;;4839341;29;92539;-78
2022/02/11 10:39:13;;;;;;;10.35;5.95;;;;;;;;;;4836367;29;94467;-77
2022/02/11 10:41:55;;;;;;;17.85;6.30;;;;;;;;;;4825247;29;94230;-78
2022/02/11 10:44:29;;;;;;;18.85;7.40;;;;;;;;;;4839020;29;92956;-79
2022/02/11 10:47:04;;;;;;;;;;;;;;;;;;4825402;29;92520;-78
2022/02/11 10:49:36;;;;;;;;;;;;;;;;;;4838622;29;94066;-78
2022/02/11 10:52:16;;;;;;;14.55;7.32;;;;;;;;;;4827372;29;91996;-78
2022/02/11 10:54:49;;;;;;;9.20;6.05;;;;;;;;;;4826511;29;92190;-79
2022/02/11 10:57:18;;;;;;;11.02;6.00;;;;;;;;;;4809402;29;92476;-79
2022/02/11 10:59:47;;;;;;;9.77;6.60;;;;;;;;;;4815054;29;93793;-74
2022/02/11 11:02:19;;;;;;;9.60;6.45;;;;;;;;;;4798158;29;93964;-75
2022/02/11 11:04:49;;;;;;;13.20;6.85;;;;;;;;;;4814271;29;92762;-74
2022/02/11 11:07:29;;;;;;;12.57;7.18;;;;;;;;;;4829602;29;92089;-74
2022/02/11 11:10:17;;;;;;;42.15;9.23;;;;;;;;;;4817783;29;92937;-75
2022/02/11 11:12:54;;;;;;;20.13;8.70;;;;;;;;;;4827465;29;92796;-73
2022/02/11 11:15:24;;;;;;;12.35;7.00;;;;;;;;;;4832765;29;91950;-80
2022/02/11 11:17:52;;;;;;;15.15;6.88;;;;;;;;;;4827673;29;91623;-83
2022/02/11 11:20:21;;;;;;;15.68;7.47;;;;;;;;;;4827699;29;94832;-75
2022/02/11 11:22:52;;;;;;;12.32;7.70;;;;;;;;;;4816324;29;93876;-79
2022/02/11 11:25:20;;;;;;;8.93;5.90;;;;;;;;;;4812723;29;92816;-78
2022/02/11 11:27:54;;;;;;;12.38;6.82;;;;;;;;;;4809386;29;92377;-78
2022/02/11 11:30:36;;;;;;;11.15;7.70;;;;;;;;;;4822580;29;93680;-77
2022/02/11 11:33:09;;;;;;;11.00;6.20;;;;;;;;;;4822471;29;94417;-77
2022/02/11 11:35:44;;;;;;;13.95;6.50;;;;;;;;;;4810460;29;92033;-78
2022/02/11 11:38:12;;;;;;;13.95;7.10;;;;;;;;;;4809954;29;91990;-77
2022/02/11 11:40:41;;;;;;;10.25;7.43;;;;;;;;;;4808201;29;94604;-78
2022/02/11 11:43:15;;;;;;;13.75;8.43;;;;;;;;;;4825146;29;92481;-77
2022/02/11 11:45:43;;;;;;;;;;;;;;;;;;4810455;29;92089;-77
2022/02/11 11:48:14;;;;;;;16.63;8.98;;;;;;;;;;4811534;29;92952;-78
2022/02/11 11:50:42;;;;;;;23.25;9.60;;;;;;;;;;4823326;29;95122;-76
2022/02/11 11:53:28;;;;;;;17.90;8.52;;;;;;;;;;4824356;29;93489;-77
2022/02/11 11:55:55;;;;;;;12.48;7.43;;;;;;;;;;4811666;29;91957;-77
2022/02/11 11:58:31;;;;;;;14.95;8.65;;;;;;;;;;4824424;29;91951;-78
2022/02/11 12:01:00;;;;;;;13.52;8.82;;;;;;;;;;4829130;29;95271;-77
2022/02/11 12:03:27;;;;;;;16.40;9.05;;;;;;;;;;4826576;29;93776;-78
2022/02/11 12:05:56;;;;;;;11.45;7.45;;;;;;;;;;4812323;29;92366;-78
2022/02/11 12:08:29;;;;;;;11.48;9.77;;;;;;;;;;4812342;29;91305;-77
2022/02/11 12:10:57;;;;;;;19.00;9.50;;;;;;;;;;4828739;29;94357;-78
2022/02/11 12:13:25;;;;;;;22.55;9.73;;;;;;;;;;4808557;29;93979;-78
2022/02/11 12:15:52;;;;;;;14.45;8.55;;;;;;;;;;4846770;29;93215;-78
2022/02/11 12:18:19;;;;;;;15.30;9.52;;;;;;;;;;4827807;29;92120;-78
2022/02/11 12:20:46;;;;;;;12.57;7.32;;;;;;;;;;4828838;29;94403;-78
2022/02/11 12:28:46;;;;;;;10.13;6.63;;;;;;;;;;4828339;29;91952;-78
2022/02/11 12:31:22;;;;;;;12.48;7.22;;;;;;;;;;4841100;29;92986;-78
2022/02/11 12:33:49;;;;;;;13.15;7.38;;;;;;;;;;4826634;29;94083;-78
2022/02/11 12:36:16;;;;;;;14.35;7.05;;;;;;;;;;4827804;29;91914;-76
2022/02/11 12:38:43;;;;;;;15.05;7.00;;;;;;;;;;4810972;29;92012;-76
2022/02/11 12:41:10;;;;;;;11.68;5.80;;;;;;;;;;4825394;29;95586;-78
2022/02/11 12:43:37;;;;;;;10.43;6.55;;;;;;;;;;4824782;29;95648;-77
2022/02/11 12:46:08;;;;;;;13.75;6.50;;;;;;;;;;4826339;29;92362;-77
2022/02/11 12:48:38;;;;;;;12.65;6.13;;;;;;;;;;4826501;29;91864;-78
2022/02/11 12:51:08;;;;;;;13.00;8.40;;;;;;;;;;4825765;29;94644;-78
2022/02/11 12:53:35;;;;;;;16.05;8.35;;;;;;;;;;4842087;29;93627;-77
2022/02/11 12:56:05;;;;;;;13.38;6.95;;;;;;;;;;4811373;29;91977;-74
2022/02/11 12:58:33;;;;;;;16.13;7.47;;;;;;;;;;4842263;29;91190;-74
2022/02/11 13:01:00;;;;;;;14.07;7.72;;;;;;;;;;4819368;29;94596;-74
2022/02/11 13:03:30;;;;;;;13.38;8.65;;;;;;;;;;4825351;29;94115;-75
2022/02/11 13:06:02;;;;;;;11.70;7.15;;;;;;;;;;4842116;29;93033;-76
2022/02/11 13:08:31;;;;;;;16.23;7.50;;;;;;;;;;4801494;29;92026;-76
2022/02/11 13:11:04;;;;;;;14.32;7.97;;;;;;;;;;4826240;29;94395;-75
2022/02/11 13:13:36;;;;;;;10.90;7.88;;;;;;;;;;4822692;29;92358;-76
2022/02/11 13:16:05;;;;;;;10.93;7.32;;;;;;;;;;4826508;29;92032;-77
2022/02/11 13:18:36;;;;;;;11.35;7.40;;;;;;;;;;4823329;29;92257;-75
2022/02/11 13:21:06;;;;;;;12.30;7.38;;;;;;;;;;4825995;29;95445;-76
2022/02/11 13:23:33;;;;;;;16.20;8.52;;;;;;;;;;4842521;29;92404;-75
2022/02/11 13:26:04;;;;;;;12.07;7.28;;;;;;;;;;4825435;29;92558;-76
2022/02/11 13:28:56;;;;;;;20.30;9.40;;;;;;;;;;4818952;29;92004;-73
2022/02/11 13:31:23;;;;;;;9.85;7.55;;;;;;;;;;4818647;29;93742;-75
2022/02/11 13:34:11;;;;;;;13.80;8.57;;;;;;;;;;4824865;29;95328;-74
2022/02/11 13:36:45;;;;;;;21.08;8.52;;;;;;;;;;4824397;29;92337;-76
2022/02/11 13:39:28;;;;;;;16.83;9.15;;;;;;;;;;4825755;29;92021;-75
2022/02/11 13:41:55;;;;;;;20.48;10.43;;;;;;;;;;4817745;29;92934;-74
2022/02/11 13:44:34;;;;;;;19.88;9.70;;;;;;;;;;4811858;29;94640;-75
2022/02/11 13:47:02;;;;;;;23.10;11.63;;;;;;;;;;4814979;29;91944;-74
2022/02/11 13:49:37;;;;;;;15.25;10.82;;;;;;;;;;4806452;29;91219;-75
2022/02/11 13:55:03;;;;;;;14.88;10.57;;;;;;;;;;4823621;29;94898;-76
2022/02/11 13:57:34;;;;;;;16.27;11.05;;;;;;;;;;4825642;29;92995;-75
2022/02/11 14:00:27;;;;;;;18.27;10.48;;;;;;;;;;4826682;29;92140;-74
2022/02/11 14:02:54;;;;;;;28.70;11.52;;;;;;;;;;4826002;29;93003;-75
2022/02/11 14:05:22;;;;;;;20.27;11.13;;;;;;;;;;4820838;29;91947;-75
2022/02/11 14:07:55;;;;;;;22.45;13.73;;;;;;;;;;4810571;29;92025;-75
2022/02/11 14:10:23;;;;;;;20.92;13.95;;;;;;;;;;4792329;29;91941;-74
2022/02/11 14:13:07;;;;;;;20.73;14.27;;;;;;;;;;4794549;29;94189;-75
2022/02/11 14:15:35;;;;;;;18.10;13.07;;;;;;;;;;4840290;29;94063;-75
2022/02/11 14:18:04;;;;;;;25.20;13.15;;;;;;;;;;4824877;29;92047;-74
2022/02/11 14:20:34;;;;;;;23.30;12.98;;;;;;;;;;4817370;29;92007;-73
2022/02/11 14:23:14;;;;;;;25.27;13.23;;;;;;;;;;4825831;29;96622;-77
2022/02/11 14:25:42;;;;;;;31.83;16.23;;;;;;;;;;4821544;29;94088;-77
2022/02/11 14:28:11;;;;;;;26.95;16.17;;;;;;;;;;4813084;29;92101;-76
2022/02/11 14:30:40;;;;;;;20.77;17.75;;;;;;;;;;4826498;29;91997;-74
2022/02/11 14:33:09;;;;;;;24.38;17.33;;;;;;;;;;4824341;29;93109;-76
2022/02/11 14:35:37;;;;;;;19.90;15.77;;;;;;;;;;4817955;29;94149;-74
2022/02/11 14:38:04;;;;;;;24.33;17.15;;;;;;;;;;4825450;29;92028;-74
2022/02/11 14:40:32;;;;;;;18.95;16.42;;;;;;;;;;4825873;29;91282;-74
2022/02/11 14:43:04;;;;;;;20.25;16.25;;;;;;;;;;4823739;29;94723;-73
2022/02/11 14:45:31;;;;;;;29.42;18.48;;;;;;;;;;4825809;29;92991;-74
2022/02/11 14:47:58;;;;;;;19.38;16.88;;;;;;;;;;4824560;29;92906;-74
2022/02/11 14:50:25;;;;;;;27.92;17.15;;;;;;;;;;4807891;29;92356;-74
2022/02/11 14:52:52;;;;;;;19.65;17.60;;;;;;;;;;4825748;29;94356;-75
2022/02/11 14:55:20;;;;;;;28.33;18.95;;;;;;;;;;4825597;29;94481;-74
2022/02/11 14:57:47;;;;;;;29.63;17.00;;;;;;;;;;4838683;29;92124;-75
2022/02/11 15:00:14;;;;;;;31.48;17.38;;;;;;;;;;4834527;29;92032;-75
2022/02/11 15:02:41;;;;;;;37.80;22.25;;;;;;;;;;4835192;29;95306;-76
2022/02/11 15:05:08;;;;;;;30.00;18.90;;;;;;;;;;4837881;29;94690;-79
2022/02/11 15:07:38;;;;;;;30.40;19.75;;;;;;;;;;4821118;29;92063;-76
2022/02/11 15:10:06;;;;;;;23.30;17.50;;;;;;;;;;4837396;29;92171;-75
2022/02/11 15:12:34;;;;;;;35.05;18.02;;;;;;;;;;4836372;29;94489;-80
2022/02/11 15:15:01;;;;;;;28.45;18.85;;;;;;;;;;4820620;29;93364;-74
2022/02/11 15:17:28;;;;;;;31.55;20.58;;;;;;;;;;4823294;29;92580;-74
2022/02/11 15:19:54;;;;;;;27.63;20.67;;;;;;;;;;4823907;29;92040;-75
2022/02/11 15:22:22;;;;;;;27.95;20.50;;;;;;;;;;4821725;29;93715;-75
2022/02/11 15:24:50;;;;;;;29.48;19.58;;;;;;;;;;4823284;29;92593;-74
2022/02/11 15:27:17;;;;;;;30.08;18.70;;;;;;;;;;4823112;29;91946;-75
2022/02/11 15:29:44;;;;;;;21.40;16.55;;;;;;;;;;4838124;29;91260;-73
2022/02/11 15:32:14;;;;;;;20.55;16.63;;;;;;;;;;4836912;29;94258;-74
2022/02/11 15:34:41;;;;;;;19.17;16.52;;;;;;;;;;4823115;29;94293;-75
2022/02/11 15:37:12;;;;;;;21.13;18.02;;;;;;;;;;4821864;29;93418;-75
2022/02/11 15:39:41;;;;;;;23.98;18.10;;;;;;;;;;4825682;29;92099;-74
2022/02/11 15:42:09;;;;;;;22.20;15.68;;;;;;;;;;4821412;29;94201;-75
2022/02/11 15:44:36;;;;;;;25.88;19.23;;;;;;;;;;4812228;29;95489;-74
2022/02/11 15:47:04;;;;;;;27.45;19.05;;;;;;;;;;4837298;29;91966;-74
2022/02/11 15:49:31;;;;;;;20.90;17.95;;;;;;;;;;4829350;29;92169;-74
2022/02/11 15:51:58;;;;;;;26.45;17.67;;;;;;;;;;4816767;29;96119;-74
2022/02/11 15:54:29;;;;;;;31.83;16.77;;;;;;;;;;4837491;29;93443;-74
2022/02/11 15:56:56;;;;;;;22.30;16.67;;;;;;;;;;4813433;29;93506;-74
2022/02/11 15:59:23;;;;;;;37.50;18.42;;;;;;;;;;4826200;29;92136;-76
2022/02/11 16:01:51;;;;;;;40.40;21.10;;;;;;;;;;4825304;29;96882;-75
2022/02/11 16:04:18;;;;;;;29.63;18.08;;;;;;;;;;4827688;29;93733;-74
2022/02/11 16:06:45;;;;;;;34.95;19.02;;;;;;;;;;4795126;29;92180;-75
2022/02/11 16:09:12;;;;;;;34.50;19.73;;;;;;;;;;4986250;23;92786;-76
2022/02/11 16:11:39;;;;;;;27.70;18.33;;;;;;;;;;4826820;29;93773;-76
2022/02/11 16:14:09;;;;;;;41.53;18.85;;;;;;;;;;4841905;29;93494;-76
2022/02/11 16:16:37;;;;;;;23.95;18.10;;;;;;;;;;4828551;29;91905;-78
2022/02/11 16:19:04;;;;;;;30.17;18.35;;;;;;;;;;4845444;29;91510;-76
2022/02/11 16:21:31;;;;;;;28.98;18.98;;;;;;;;;;4844778;29;94609;-77
2022/02/11 16:23:58;;;;;;;30.58;18.23;;;;;;;;;;4827264;29;93920;-76
2022/02/11 16:26:27;;;;;;;32.40;18.27;;;;;;;;;;4832662;29;92941;-77
2022/02/11 16:28:54;;;;;;;31.63;21.60;;;;;;;;;;4845076;29;92478;-77
2022/02/11 16:31:24;;;;;;;28.88;18.63;;;;;;;;;;4825140;29;94152;-77
2022/02/11 16:33:53;;;;;;;36.65;19.08;;;;;;;;;;4819950;29;92705;-78
2022/02/11 16:36:21;;;;;;;44.95;21.55;;;;;;;;;;4828144;29;92473;-76
2022/02/11 16:38:49;;;;;;;28.23;21.08;;;;;;;;;;4812434;29;92110;-75
2022/02/11 16:41:18;;;;;;;25.77;20.20;;;;;;;;;;4824197;29;93283;-76
2022/02/11 16:43:45;;;;;;;26.50;19.35;;;;;;;;;;4842838;29;93046;-77
2022/02/11 16:46:12;;;;;;;33.83;19.40;;;;;;;;;;4824731;29;92144;-77
2022/02/11 16:48:40;;;;;;;24.00;20.33;;;;;;;;;;4842420;29;92457;-76
2022/02/11 16:51:07;;;;;;;38.80;20.77;;;;;;;;;;4826104;29;95500;-76
2022/02/11 16:53:39;;;;;;;23.38;20.55;;;;;;;;;;4828307;29;93526;-76
2022/02/11 16:56:07;;;;;;;28.42;21.85;;;;;;;;;;4827215;29;92421;-76
2022/02/11 16:58:36;;;;;;;32.83;23.67;;;;;;;;;;4845704;29;91987;-76
2022/02/11 17:01:03;;;;;;;37.85;24.92;;;;;;;;;;4844223;29;93745;-77
2022/02/11 17:03:30;;;;;;;38.53;21.98;;;;;;;;;;4827473;29;94594;-78
2022/02/11 17:05:57;;;;;;;31.50;22.25;;;;;;;;;;4827447;29;92402;-77
2022/02/11 17:08:24;;;;;;;42.95;24.85;;;;;;;;;;4836954;29;92937;-74
2022/02/11 17:10:52;;;;;;;34.95;24.13;;;;;;;;;;4835468;29;95512;-80
2022/02/11 17:13:19;;;;;;;38.42;28.00;;;;;;;;;;4839188;29;93633;-77
2022/02/11 17:15:46;;;;;;;38.55;25.67;;;;;;;;;;4842108;29;92928;-79
2022/02/11 17:18:13;;;;;;;59.20;38.47;;;;;;;;;;4845879;29;92333;-76
2022/02/11 17:20:41;;;;;;;77.70;48.78;;;;;;;;;;4843066;29;94813;-77
2022/02/11 17:23:08;;;;;;;65.30;44.95;;;;;;;;;;4839806;29;93914;-78
2022/02/11 17:25:35;;;;;;;51.28;32.30;;;;;;;;;;4843016;29;92042;-76
2022/02/11 17:28:03;;;;;;;54.25;45.95;;;;;;;;;;4844844;29;92451;-77
2022/02/11 17:30:33;;;;;;;67.60;50.92;;;;;;;;;;4827342;29;94464;-77
2022/02/11 17:33:00;;;;;;;70.57;53.38;;;;;;;;;;4843699;29;95629;-77
2022/02/11 17:35:27;;;;;;;71.90;54.05;;;;;;;;;;4843104;29;92201;-77
2022/02/11 17:37:54;;;;;;;38.40;29.15;;;;;;;;;;4840762;29;92414;-80
2022/02/11 17:40:22;;;;;;;47.35;33.40;;;;;;;;;;4835946;29;94432;-81
2022/02/11 17:42:50;;;;;;;42.03;24.65;;;;;;;;;;4831919;29;95393;-76
2022/02/11 17:45:18;;;;;;;36.92;28.70;;;;;;;;;;4835229;29;92585;-78
2022/02/11 17:47:46;;;;;;;30.48;23.65;;;;;;;;;;4838993;29;92587;-77
2022/02/11 17:50:13;;;;;;;31.85;26.38;;;;;;;;;;4843142;29;93390;-77
2022/02/11 17:52:41;;;;;;;37.20;22.88;;;;;;;;;;4842027;29;93440;-76
2022/02/11 17:55:09;;;;;;;35.83;24.90;;;;;;;;;;4842915;29;92069;-77
2022/02/11 17:57:36;;;;;;;30.70;22.80;;;;;;;;;;4841903;29;91283;-77
2022/02/11 18:00:05;;;;;;;30.88;23.08;;;;;;;;;;4838773;29;94194;-77
2022/02/11 18:02:38;;;;;;;36.78;23.73;;;;;;;;;;4839637;29;92072;-78
2022/02/11 18:05:06;;;;;;;36.38;25.48;;;;;;;;;;4841929;29;94034;-77
2022/02/11 18:07:39;;;;;;;32.50;26.15;;;;;;;;;;4841995;29;92204;-77
2022/02/11 18:10:08;;;;;;;27.83;22.80;;;;;;;;;;4842955;29;93314;-77
2022/02/11 18:12:35;;;;;;;40.83;26.40;;;;;;;;;;4842932;29;92116;-76
2022/02/11 18:15:03;;;;;;;34.33;23.80;;;;;;;;;;4824245;29;92420;-77
2022/02/11 18:17:32;;;;;;;31.30;23.20;;;;;;;;;;4839958;29;92604;-76
2022/02/11 18:20:00;;;;;;;36.13;26.80;;;;;;;;;;4843510;29;93948;-78
2022/02/11 18:22:28;;;;;;;36.17;24.60;;;;;;;;;;4840456;29;93066;-77
2022/02/11 18:24:58;;;;;;;40.45;25.42;;;;;;;;;;4842614;29;92415;-75
2022/02/11 18:27:25;;;;;;;35.05;24.85;;;;;;;;;;4842944;29;92189;-76
2022/02/11 18:29:52;;;;;;;34.45;25.02;;;;;;;;;;4843052;29;96406;-77
2022/02/11 18:32:19;;;;;;;36.92;26.73;;;;;;;;;;4846953;29;93603;-75
2022/02/11 18:34:47;;;;;;;34.60;25.23;;;;;;;;;;4847007;29;92394;-79
2022/02/11 18:37:14;;;;;;;41.75;25.63;;;;;;;;;;4849179;29;93795;-77